createdAt,value
2017-07-27T00:01:28.328Z,77.70
2017-07-27T00:03:54.334Z,77.60
2017-07-27T00:06:20.343Z,77.60
2017-07-27T00:08:47.150Z,77.70
2017-07-27T00:11:13.123Z,78.20
2017-07-27T00:13:40.284Z,78.50
2017-07-27T00:16:06.276Z,78.40
2017-07-27T00:18:32.511Z,78.60
2017-07-27T00:20:58.612Z,78.80
2017-07-27T00:23:24.569Z,78.90
2017-07-27T00:25:50.573Z,79.30
2017-07-27T00:28:17.136Z,79.60
2017-07-27T00:30:43.547Z,79.60
2017-07-27T00:33:09.544Z,79.70
2017-07-27T00:35:35.540Z,79.40
2017-07-27T00:38:02.310Z,79.50
2017-07-27T00:40:28.565Z,79.50
2017-07-27T00:42:55.078Z,79.60
2017-07-27T00:45:21.103Z,79.30
2017-07-27T00:47:47.133Z,78.90
2017-07-27T00:50:13.728Z,78.60
2017-07-27T00:52:39.721Z,79.00
2017-07-27T00:55:05.912Z,79.40
2017-07-27T00:57:31.940Z,79.60
2017-07-27T00:59:57.904Z,80.20
2017-07-27T01:02:23.862Z,80.30
2017-07-27T01:04:50.028Z,80.00
2017-07-27T01:07:16.169Z,80.10
2017-07-27T01:09:42.725Z,80.40
2017-07-27T01:12:11.074Z,80.50
2017-07-27T01:14:38.710Z,80.40
2017-07-27T01:17:04.744Z,80.50
2017-07-27T01:19:30.758Z,81.00
2017-07-27T01:21:56.783Z,81.10
2017-07-27T01:24:22.825Z,80.80
2017-07-27T01:26:48.867Z,81.30
2017-07-27T01:29:14.868Z,81.80
2017-07-27T01:31:41.495Z,81.80
2017-07-27T01:34:07.513Z,82.10
2017-07-27T01:36:33.491Z,82.30
2017-07-27T01:39:00.468Z,82.50
2017-07-27T01:41:26.552Z,82.60
2017-07-27T01:43:52.612Z,83.00
2017-07-27T01:46:18.569Z,83.40
2017-07-27T01:48:44.543Z,83.50
2017-07-27T01:51:10.579Z,83.50
2017-07-27T01:53:36.775Z,83.40
2017-07-27T01:56:02.794Z,83.20
2017-07-27T01:58:28.792Z,82.90
2017-07-27T02:00:55.867Z,82.90
2017-07-27T02:03:21.926Z,83.10
2017-07-27T02:05:48.057Z,83.50
2017-07-27T02:08:14.132Z,84.40
2017-07-27T02:10:41.567Z,84.60
2017-07-27T02:13:07.544Z,84.50
2017-07-27T02:15:33.695Z,84.60
2017-07-27T02:17:59.691Z,84.60
2017-07-27T02:20:25.699Z,85.30
2017-07-27T02:22:51.698Z,86.40
2017-07-27T02:25:18.472Z,88.50
2017-07-27T02:27:44.465Z,88.50
2017-07-27T02:30:11.221Z,90.30
2017-07-27T02:32:37.240Z,90.30
2017-07-27T02:35:03.195Z,90.80
2017-07-27T02:37:29.186Z,91.30
2017-07-27T02:39:55.210Z,91.80
2017-07-27T02:42:21.255Z,92.20
2017-07-27T02:44:47.225Z,92.50
2017-07-27T02:47:13.230Z,92.90
2017-07-27T02:49:39.221Z,93.40
2017-07-27T02:52:05.189Z,94.10
2017-07-27T02:54:31.981Z,94.90
2017-07-27T02:56:58.960Z,94.90
2017-07-27T02:59:24.895Z,95.10
2017-07-27T03:01:50.886Z,95.50
2017-07-27T03:04:16.922Z,95.60
2017-07-27T03:06:42.962Z,96.00
2017-07-27T03:09:09.016Z,96.10
2017-07-27T03:11:34.974Z,96.10
2017-07-27T03:14:01.505Z,96.10
2017-07-27T03:16:27.524Z,96.10
2017-07-27T03:18:53.519Z,96.20
2017-07-27T03:21:19.546Z,96.40
2017-07-27T03:23:45.519Z,96.50
2017-07-27T03:26:11.526Z,96.60
2017-07-27T03:28:38.367Z,96.90
2017-07-27T03:31:04.372Z,97.00
2017-07-27T03:33:30.388Z,97.20
2017-07-27T03:35:56.407Z,97.10
2017-07-27T03:38:22.378Z,97.00
2017-07-27T03:40:48.406Z,96.80
2017-07-27T03:43:14.394Z,96.60
2017-07-27T03:45:40.469Z,96.50
2017-07-27T03:48:06.667Z,96.60
2017-07-27T03:50:32.684Z,96.70
2017-07-27T03:52:58.672Z,96.80
2017-07-27T03:55:24.625Z,97.00
2017-07-27T03:57:50.650Z,96.90
2017-07-27T04:00:16.647Z,97.00
2017-07-27T04:02:42.720Z,96.80
2017-07-27T04:05:08.825Z,96.90
2017-07-27T04:07:34.841Z,96.90
2017-07-27T04:10:01.699Z,96.80
2017-07-27T04:12:28.440Z,96.60
2017-07-27T04:14:54.460Z,96.60
2017-07-27T04:17:20.523Z,96.50
2017-07-27T04:19:46.590Z,96.70
2017-07-27T04:22:12.741Z,96.80
2017-07-27T04:24:39.435Z,96.70
2017-07-27T04:27:05.452Z,96.90
2017-07-27T04:29:31.527Z,96.80
2017-07-27T04:31:57.574Z,97.00
2017-07-27T04:34:24.218Z,97.20
2017-07-27T04:36:50.935Z,97.30
2017-07-27T04:39:16.909Z,97.50
2017-07-27T04:41:42.970Z,97.30
2017-07-27T04:44:09.952Z,97.30
2017-07-27T04:46:35.955Z,97.40
2017-07-27T04:49:01.924Z,97.30
2017-07-27T04:51:27.892Z,97.40
2017-07-27T04:53:53.896Z,97.50
2017-07-27T04:56:19.923Z,97.80
2017-07-27T04:58:45.893Z,98.10
2017-07-27T05:01:11.868Z,98.20
2017-07-27T05:03:37.890Z,98.00
2017-07-27T05:06:03.964Z,98.00
2017-07-27T05:08:29.947Z,97.80
2017-07-27T05:10:55.951Z,97.70
2017-07-27T05:13:22.000Z,97.60
2017-07-27T05:15:47.955Z,97.60
2017-07-27T05:18:14.046Z,97.80
2017-07-27T05:20:40.085Z,97.70
2017-07-27T05:23:06.055Z,98.00
2017-07-27T05:25:32.047Z,98.10
2017-07-27T05:27:58.134Z,98.10
2017-07-27T05:30:24.160Z,98.00
2017-07-27T05:32:50.344Z,98.10
2017-07-27T05:35:16.327Z,98.30
2017-07-27T05:37:42.404Z,98.30
2017-07-27T05:40:08.688Z,98.20
2017-07-27T05:42:35.177Z,98.10
2017-07-27T05:45:01.230Z,98.00
2017-07-27T05:47:27.959Z,97.90
2017-07-27T05:49:54.205Z,98.10
2017-07-27T05:52:20.209Z,98.20
2017-07-27T05:54:47.050Z,98.30
2017-07-27T05:57:15.005Z,98.30
2017-07-27T05:59:41.050Z,98.30
2017-07-27T06:02:07.084Z,98.40
2017-07-27T06:04:33.211Z,98.40
2017-07-27T06:06:59.987Z,98.30
2017-07-27T06:09:28.563Z,98.30
2017-07-27T06:11:54.567Z,98.30
2017-07-27T06:14:20.603Z,98.40
2017-07-27T06:16:46.699Z,98.30
2017-07-27T06:19:12.717Z,98.10
2017-07-27T06:21:38.789Z,98.10
2017-07-27T06:24:05.747Z,97.90
2017-07-27T06:26:32.752Z,98.10
2017-07-27T06:28:58.971Z,98.00
2017-07-27T06:31:25.002Z,98.00
2017-07-27T06:33:51.018Z,98.00
2017-07-27T06:36:17.039Z,98.10
2017-07-27T06:38:43.117Z,97.80
2017-07-27T06:41:09.903Z,97.60
2017-07-27T06:43:36.665Z,97.50
2017-07-27T06:46:02.776Z,97.40
2017-07-27T06:48:28.789Z,97.40
2017-07-27T06:50:55.792Z,97.50
2017-07-27T06:53:25.984Z,97.70
2017-07-27T06:55:52.833Z,97.50
2017-07-27T06:58:21.071Z,97.70
2017-07-27T07:00:47.114Z,97.70
2017-07-27T07:03:13.374Z,97.90
2017-07-27T07:05:40.060Z,98.40
2017-07-27T07:08:06.081Z,98.30
2017-07-27T07:10:32.290Z,98.60
2017-07-27T07:12:58.335Z,98.70
2017-07-27T07:15:24.419Z,98.70
2017-07-27T07:17:50.665Z,98.70
2017-07-27T07:20:17.115Z,98.70
2017-07-27T07:22:43.113Z,99.20
2017-07-27T07:25:09.268Z,99.20
2017-07-27T07:27:35.479Z,99.00
2017-07-27T07:30:01.609Z,98.90
2017-07-27T07:32:27.911Z,99.00
2017-07-27T07:34:53.902Z,98.90
2017-07-27T07:37:20.894Z,98.80
2017-07-27T07:39:46.970Z,98.70
2017-07-27T07:42:13.794Z,98.70
2017-07-27T07:44:41.269Z,98.50
2017-07-27T07:47:07.215Z,98.60
2017-07-27T07:49:33.295Z,98.40
2017-07-27T07:51:59.490Z,98.40
2017-07-27T07:54:25.592Z,97.90
2017-07-27T07:56:51.870Z,98.20
2017-07-27T07:59:18.097Z,98.00
2017-07-27T08:01:44.093Z,98.30
2017-07-27T08:04:10.153Z,98.70
2017-07-27T08:06:36.208Z,98.60
2017-07-27T08:09:15.432Z,98.80
2017-07-27T08:11:41.466Z,98.50
2017-07-27T08:14:08.162Z,98.10
2017-07-27T08:16:34.220Z,98.00
2017-07-27T08:19:00.256Z,97.80
2017-07-27T08:21:26.298Z,97.70
2017-07-27T08:23:52.302Z,98.20
2017-07-27T08:26:18.311Z,97.50
2017-07-27T08:28:45.544Z,97.80
2017-07-27T08:31:12.914Z,97.90
2017-07-27T08:33:40.308Z,97.30
2017-07-27T08:36:06.351Z,97.30
2017-07-27T08:38:32.931Z,97.10
2017-07-27T08:40:58.929Z,97.10
2017-07-27T08:43:24.967Z,96.70
2017-07-27T08:45:51.681Z,96.70
2017-07-27T08:48:17.720Z,96.70
2017-07-27T08:50:43.912Z,96.60
2017-07-27T08:53:09.918Z,96.90
2017-07-27T08:55:35.960Z,96.80
2017-07-27T08:58:02.302Z,97.00
2017-07-27T09:00:28.315Z,96.80
2017-07-27T09:02:54.336Z,96.20
2017-07-27T09:05:20.438Z,96.00
2017-07-27T09:07:46.443Z,95.20
2017-07-27T09:10:12.416Z,95.00
2017-07-27T09:12:38.672Z,96.00
2017-07-27T09:15:04.668Z,95.50
2017-07-27T09:17:30.689Z,95.20
2017-07-27T09:19:56.739Z,94.80
2017-07-27T09:22:23.160Z,94.90
2017-07-27T09:24:49.423Z,95.00
2017-07-27T09:27:16.036Z,95.30
2017-07-27T09:29:42.293Z,95.10
2017-07-27T09:32:09.108Z,94.60
2017-07-27T09:34:35.219Z,94.80
2017-07-27T09:37:01.465Z,94.80
2017-07-27T09:39:27.594Z,94.80
2017-07-27T09:41:53.615Z,94.80
2017-07-27T09:44:19.632Z,94.40
2017-07-27T09:46:46.583Z,94.30
2017-07-27T09:49:12.604Z,94.20
2017-07-27T09:51:39.550Z,93.90
2017-07-27T09:54:05.884Z,93.80
2017-07-27T09:56:34.135Z,93.90
2017-07-27T09:59:00.586Z,93.30
2017-07-27T10:01:26.609Z,93.00
2017-07-27T10:03:52.724Z,92.50
2017-07-27T10:08:54.016Z,91.80
2017-07-27T10:11:20.681Z,92.20
2017-07-27T10:13:46.678Z,92.30
2017-07-27T10:16:12.865Z,92.00
2017-07-27T10:18:38.866Z,92.30
2017-07-27T10:21:05.057Z,92.40
2017-07-27T10:23:31.077Z,92.40
2017-07-27T10:25:57.417Z,92.40
2017-07-27T10:28:23.413Z,92.40
2017-07-27T10:30:49.422Z,92.40
2017-07-27T10:33:15.439Z,92.20
2017-07-27T10:35:41.702Z,92.20
2017-07-27T10:38:07.700Z,92.10
2017-07-27T10:40:33.743Z,91.90
2017-07-27T10:42:59.961Z,92.00
2017-07-27T10:45:26.095Z,91.90
2017-07-27T10:47:52.237Z,92.10
2017-07-27T10:50:18.238Z,92.10
2017-07-27T10:52:44.543Z,92.20
2017-07-27T10:55:10.604Z,92.50
2017-07-27T10:57:37.285Z,92.50
2017-07-27T11:00:03.285Z,91.80
2017-07-27T11:02:29.541Z,92.10
2017-07-27T11:04:55.586Z,91.60
2017-07-27T11:07:21.639Z,91.80
2017-07-27T11:09:48.588Z,91.80
2017-07-27T11:12:19.742Z,92.00
2017-07-27T11:14:45.764Z,91.60
2017-07-27T11:17:12.745Z,91.40
2017-07-27T11:19:38.736Z,90.10
2017-07-27T11:22:04.816Z,89.60
2017-07-27T11:24:30.921Z,88.30
2017-07-27T11:26:57.096Z,89.30
2017-07-27T11:29:23.184Z,89.00
2017-07-27T11:31:49.902Z,85.80
2017-07-27T11:34:16.667Z,84.70
2017-07-27T11:36:42.727Z,83.30
2017-07-27T11:39:08.734Z,83.30
2017-07-27T11:41:34.772Z,82.80
2017-07-27T11:44:00.963Z,81.50
2017-07-27T11:46:26.975Z,79.60
2017-07-27T11:48:53.852Z,79.60
2017-07-27T11:51:19.836Z,79.90
2017-07-27T11:53:46.569Z,78.40
2017-07-27T11:56:12.616Z,78.40
2017-07-27T11:58:40.259Z,78.70
2017-07-27T12:01:06.296Z,78.60
2017-07-27T12:03:32.312Z,78.60
2017-07-27T12:05:58.539Z,78.60
2017-07-27T12:08:24.667Z,77.50
2017-07-27T12:10:50.899Z,77.20
2017-07-27T12:13:17.045Z,77.20
2017-07-27T12:15:43.149Z,75.40
2017-07-27T12:18:10.214Z,75.40
2017-07-27T12:20:37.664Z,74.90
2017-07-27T12:23:03.660Z,74.90
2017-07-27T12:25:29.959Z,74.50
2017-07-27T12:27:56.238Z,74.00
2017-07-27T12:30:22.342Z,74.70
2017-07-27T12:32:48.396Z,74.50
2017-07-27T12:35:14.413Z,74.00
2017-07-27T12:37:40.416Z,74.20
2017-07-27T12:40:06.466Z,74.70
2017-07-27T12:42:32.487Z,73.40
2017-07-27T12:44:59.332Z,71.50
2017-07-27T12:47:25.627Z,70.60
2017-07-27T12:49:51.682Z,70.30
2017-07-27T12:52:17.699Z,71.10
2017-07-27T12:54:44.041Z,71.30
2017-07-27T12:57:10.297Z,71.20
2017-07-27T12:59:36.364Z,71.10
2017-07-27T13:02:02.338Z,71.00
2017-07-27T13:04:28.383Z,72.50
2017-07-27T13:06:54.420Z,72.70
2017-07-27T13:09:21.931Z,74.10
2017-07-27T13:11:47.935Z,73.90
2017-07-27T13:14:15.008Z,73.60
2017-07-27T13:16:41.209Z,72.40
2017-07-27T13:19:07.226Z,71.30
2017-07-27T13:21:33.570Z,68.10
2017-07-27T13:23:59.580Z,68.10
2017-07-27T13:26:25.612Z,68.00
2017-07-27T13:28:51.874Z,67.10
2017-07-27T13:31:17.856Z,66.50
2017-07-27T13:33:43.892Z,66.70
2017-07-27T13:36:09.903Z,66.50
2017-07-27T13:38:36.141Z,66.30
2017-07-27T13:41:02.141Z,66.10
2017-07-27T13:43:28.508Z,65.40
2017-07-27T13:45:54.485Z,63.20
2017-07-27T13:48:20.518Z,63.60
2017-07-27T13:50:46.515Z,65.30
2017-07-27T13:53:13.277Z,67.30
2017-07-27T13:55:40.236Z,67.10
2017-07-27T13:58:07.077Z,67.20
2017-07-27T14:00:33.087Z,67.20
2017-07-27T14:02:59.086Z,68.00
2017-07-27T14:05:25.911Z,67.90
2017-07-27T14:07:51.972Z,68.80
2017-07-27T14:10:18.166Z,68.80
2017-07-27T14:12:45.052Z,70.30
2017-07-27T14:15:11.059Z,70.30
2017-07-27T14:17:37.074Z,71.40
2017-07-27T14:20:03.095Z,71.80
2017-07-27T14:22:30.084Z,71.80
2017-07-27T14:24:56.071Z,72.00
2017-07-27T14:27:22.837Z,72.80
2017-07-27T14:29:48.875Z,74.20
2017-07-27T14:32:14.885Z,75.20
2017-07-27T14:34:40.971Z,74.90
2017-07-27T14:37:06.994Z,74.40
2017-07-27T14:39:33.026Z,71.80
2017-07-27T14:41:59.082Z,71.60
2017-07-27T14:44:25.110Z,71.80
2017-07-27T14:46:51.130Z,71.00
2017-07-27T14:49:17.139Z,70.70
2017-07-27T14:51:43.638Z,69.80
2017-07-27T14:54:09.796Z,68.60
2017-07-27T14:56:35.812Z,67.90
2017-07-27T14:59:02.035Z,67.20
2017-07-27T15:01:28.089Z,66.60
2017-07-27T15:03:54.088Z,68.10
2017-07-27T15:06:20.075Z,67.00
2017-07-27T15:08:46.154Z,66.80
2017-07-27T15:11:12.252Z,66.60
2017-07-27T15:13:38.340Z,67.20
2017-07-27T15:16:04.426Z,67.80
2017-07-27T15:18:30.511Z,68.60
2017-07-27T15:20:56.624Z,69.20
2017-07-27T15:23:22.630Z,68.70
2017-07-27T15:25:48.673Z,68.20
2017-07-27T15:28:14.696Z,69.90
2017-07-27T15:30:40.735Z,68.90
2017-07-27T15:33:06.775Z,71.40
2017-07-27T15:35:32.801Z,72.00
2017-07-27T15:37:58.826Z,73.20
2017-07-27T15:40:24.899Z,72.70
2017-07-27T15:42:51.183Z,71.90
2017-07-27T15:45:17.172Z,72.10
2017-07-27T15:47:43.199Z,71.60
2017-07-27T15:50:09.661Z,72.10
2017-07-27T15:52:35.685Z,72.20
2017-07-27T15:55:01.873Z,72.00
2017-07-27T15:57:29.733Z,71.60
2017-07-27T15:59:55.715Z,72.10
2017-07-27T16:02:22.784Z,76.80
2017-07-27T16:04:49.462Z,79.20
2017-07-27T16:07:15.564Z,79.90
2017-07-27T16:09:41.551Z,81.40
2017-07-27T16:12:07.680Z,81.90
2017-07-27T16:14:33.941Z,81.00
2017-07-27T16:16:59.926Z,81.20
2017-07-27T16:19:25.950Z,82.60
2017-07-27T16:21:53.571Z,85.40
2017-07-27T16:24:20.461Z,87.20
2017-07-27T16:26:47.435Z,87.60
2017-07-27T16:29:13.452Z,88.40
2017-07-27T16:31:40.569Z,89.10
2017-07-27T16:34:06.643Z,89.30
2017-07-27T16:36:33.479Z,87.40
2017-07-27T16:39:00.317Z,85.00
2017-07-27T16:41:27.167Z,85.00
2017-07-27T16:43:54.202Z,84.50
2017-07-27T16:46:21.763Z,85.50
2017-07-27T16:48:47.783Z,85.30
2017-07-27T16:51:13.829Z,84.90
2017-07-27T16:53:40.158Z,85.80
2017-07-27T16:56:10.314Z,85.40
2017-07-27T16:58:36.398Z,87.10
2017-07-27T17:01:02.524Z,88.30
2017-07-27T17:03:28.568Z,87.60
2017-07-27T17:05:56.699Z,89.60
2017-07-27T17:08:23.529Z,89.00
2017-07-27T17:10:49.553Z,88.60
2017-07-27T17:13:16.513Z,90.00
2017-07-27T17:15:43.680Z,89.70
2017-07-27T17:18:10.091Z,89.80
2017-07-27T17:20:36.831Z,89.30
2017-07-27T17:23:02.868Z,89.40
2017-07-27T17:25:28.849Z,89.20
2017-07-27T17:27:54.826Z,89.40
2017-07-27T17:30:20.966Z,88.10
2017-07-27T17:32:47.064Z,86.90
2017-07-27T17:35:14.061Z,88.60
2017-07-27T17:37:40.095Z,88.60
2017-07-27T17:40:07.342Z,89.80
2017-07-27T17:42:33.326Z,90.20
2017-07-27T17:44:59.352Z,89.00
2017-07-27T17:47:25.971Z,89.00
2017-07-27T17:49:52.034Z,88.30
2017-07-27T17:52:18.047Z,88.50
2017-07-27T17:54:44.215Z,87.30
2017-07-27T17:57:10.277Z,86.20
2017-07-27T17:59:36.604Z,86.80
2017-07-27T18:02:02.631Z,85.70
2017-07-27T18:04:28.976Z,86.60
2017-07-27T18:06:55.083Z,85.50
2017-07-27T18:09:21.068Z,85.60
2017-07-27T18:11:47.123Z,85.50
2017-07-27T18:14:13.138Z,85.00
2017-07-27T18:16:39.892Z,86.00
2017-07-27T18:19:06.837Z,86.00
2017-07-27T18:21:33.103Z,86.00
2017-07-27T18:24:00.335Z,87.20
2017-07-27T18:26:26.472Z,87.20
2017-07-27T18:28:54.378Z,87.30
2017-07-27T18:31:21.121Z,87.30
2017-07-27T18:33:47.356Z,88.20
2017-07-27T18:36:13.491Z,87.80
2017-07-27T18:38:40.347Z,87.70
2017-07-27T18:41:06.347Z,87.70
2017-07-27T18:43:32.297Z,88.80
2017-07-27T18:45:58.714Z,88.20
2017-07-27T18:48:25.564Z,89.60
2017-07-27T18:50:52.508Z,90.10
2017-07-27T18:53:19.109Z,90.30
2017-07-27T18:55:45.144Z,90.60
2017-07-27T18:58:11.135Z,90.60
2017-07-27T19:00:37.937Z,90.20
2017-07-27T19:03:03.932Z,90.10
2017-07-27T19:05:30.407Z,90.20
2017-07-27T19:07:56.420Z,90.40
2017-07-27T19:10:22.413Z,90.20
2017-07-27T19:12:48.438Z,90.60
2017-07-27T19:15:15.015Z,90.30
2017-07-27T19:17:41.838Z,90.40
2017-07-27T19:20:07.829Z,90.00
2017-07-27T19:22:33.843Z,90.00
2017-07-27T19:24:59.792Z,90.10
2017-07-27T19:27:25.895Z,90.40
2017-07-27T19:29:51.836Z,90.90
2017-07-27T19:32:18.297Z,90.50
2017-07-27T19:34:45.091Z,91.20
2017-07-27T19:37:11.304Z,91.20
2017-07-27T19:39:37.276Z,91.50
2017-07-27T19:42:03.247Z,91.70
2017-07-27T19:44:31.231Z,92.40
2017-07-27T19:46:57.223Z,92.30
2017-07-27T19:49:23.401Z,92.50
2017-07-27T19:51:50.437Z,92.60
2017-07-27T19:54:17.148Z,92.00
2017-07-27T19:56:43.193Z,92.00
2017-07-27T19:59:09.289Z,92.10
2017-07-27T20:01:35.223Z,92.00
2017-07-27T20:04:01.223Z,92.50
2017-07-27T20:06:28.022Z,92.30
2017-07-27T20:08:53.991Z,92.10
2017-07-27T20:11:20.260Z,92.20
2017-07-27T20:13:47.220Z,91.70
2017-07-27T20:16:13.207Z,92.20
2017-07-27T20:18:39.265Z,92.10
2017-07-27T20:21:06.154Z,92.30
2017-07-27T20:23:32.214Z,92.20
2017-07-27T20:25:58.204Z,92.40
2017-07-27T20:28:24.347Z,92.80
2017-07-27T20:30:50.343Z,93.00
2017-07-27T20:33:16.701Z,93.00
2017-07-27T20:35:42.800Z,93.20
2017-07-27T20:38:09.262Z,93.50
2017-07-27T20:40:35.207Z,93.70
2017-07-27T20:43:01.205Z,94.30
2017-07-27T20:45:27.207Z,94.30
2017-07-27T20:47:53.345Z,94.80
2017-07-27T20:50:19.335Z,95.40
2017-07-27T20:52:45.377Z,95.60
2017-07-27T20:55:11.433Z,96.00
2017-07-27T20:57:37.355Z,96.30
2017-07-27T21:00:03.330Z,96.90
2017-07-27T21:02:29.335Z,97.00
2017-07-27T21:04:56.856Z,97.40
2017-07-27T21:07:22.778Z,97.50
2017-07-27T21:09:48.777Z,97.30
2017-07-27T21:12:14.923Z,97.50
2017-07-27T21:14:40.915Z,97.70
2017-07-27T21:17:06.852Z,97.60
2017-07-27T21:19:33.096Z,97.70
2017-07-27T21:22:00.054Z,97.40
2017-07-27T21:24:25.989Z,97.40
2017-07-27T21:26:51.946Z,97.20
2017-07-27T21:29:18.176Z,97.30
2017-07-27T21:31:44.196Z,96.90
2017-07-27T21:34:10.242Z,96.90
2017-07-27T21:36:36.252Z,97.10
2017-07-27T21:39:02.200Z,97.10
2017-07-27T21:41:28.161Z,97.00
2017-07-27T21:43:54.118Z,97.10
2017-07-27T21:46:20.207Z,97.30
2017-07-27T21:48:46.981Z,97.30
2017-07-27T21:51:14.009Z,97.30
2017-07-27T21:53:40.121Z,96.40
2017-07-27T21:56:06.256Z,96.40
2017-07-27T21:58:32.280Z,96.70
2017-07-27T22:00:58.312Z,97.00
2017-07-27T22:03:24.295Z,96.60
2017-07-27T22:05:50.313Z,96.80
2017-07-27T22:08:16.343Z,96.60
2017-07-27T22:10:42.422Z,96.30
2017-07-27T22:13:08.445Z,95.60
2017-07-27T22:15:34.383Z,96.40
2017-07-27T22:18:01.216Z,96.20
2017-07-27T22:20:27.138Z,96.10
2017-07-27T22:22:53.153Z,95.30
2017-07-27T22:25:19.179Z,95.30
2017-07-27T22:27:45.178Z,95.50
2017-07-27T22:30:12.128Z,95.80
2017-07-27T22:32:38.155Z,95.30
2017-07-27T22:35:04.198Z,95.30
2017-07-27T22:37:30.164Z,95.50
2017-07-27T22:39:56.120Z,95.50
2017-07-27T22:42:22.121Z,95.50
2017-07-27T22:44:48.068Z,95.40
2017-07-27T22:47:14.047Z,95.20
2017-07-27T22:49:40.726Z,95.30
2017-07-27T22:52:06.749Z,95.30
2017-07-27T22:54:32.760Z,95.30
2017-07-27T22:56:58.713Z,95.10
2017-07-27T22:59:24.704Z,95.30
2017-07-27T23:01:50.692Z,95.30
2017-07-27T23:04:17.577Z,95.30
2017-07-27T23:06:43.714Z,95.40
2017-07-27T23:09:09.711Z,95.60
2017-07-27T23:11:35.742Z,96.00
2017-07-27T23:14:01.766Z,96.20
2017-07-27T23:16:27.750Z,95.90
2017-07-27T23:18:53.823Z,96.10
2017-07-27T23:21:19.878Z,96.30
2017-07-27T23:23:45.851Z,96.60
2017-07-27T23:26:11.878Z,96.40
2017-07-27T23:28:38.031Z,96.30
2017-07-27T23:31:04.025Z,96.10
2017-07-27T23:33:30.003Z,96.60
2017-07-27T23:35:55.991Z,96.70
2017-07-27T23:38:21.976Z,96.60
2017-07-27T23:40:47.947Z,96.70
2017-07-27T23:43:14.139Z,96.80
2017-07-27T23:45:40.918Z,96.70
2017-07-27T23:48:06.943Z,96.90
2017-07-27T23:50:32.871Z,96.60
2017-07-27T23:52:58.864Z,96.60
2017-07-27T23:55:24.864Z,96.50
2017-07-27T23:57:50.831Z,96.70
